Time;durP1;ratioP1;P1;durP2;ratioP2;P2;SDS_P1;SDS_P2;PMS_P1;PMS_P2;Temp;Humidity;BMP_temperature;BMP_pressure;BME280_temperature;BME280_humidity;BME280_pressure;Samples;Min_cycle;Max_cycle;Signal;HPM_P1;HPM_P2
2024/01/07 16:53:21;;;;;;;1999.90;999.90;;;1.10;99.90;;;;;;6141737;23;884689;-74
2024/01/07 16:55:47;;;;;;;1999.90;999.90;;;1.00;99.90;;;;;;6288063;22;20021;-73
2024/01/07 16:58:14;;;;;;;1999.90;999.90;;;1.00;99.90;;;;;;6076759;23;1217179;-73
2024/01/07 17:00:40;;;;;;;1999.90;999.90;;;1.00;99.90;;;;;;6127515;23;20017;-77
2024/01/07 17:03:06;;;;;;;1999.90;999.90;;;1.00;99.90;;;;;;6100408;23;20342;-75
2024/01/07 17:05:32;;;;;;;1999.90;999.90;;;0.90;99.90;;;;;;6098082;23;20429;-74
2024/01/07 17:07:57;;;;;;;1999.90;999.90;;;0.90;99.90;;;;;;6097761;23;20003;-74
2024/01/07 17:10:23;;;;;;;1999.90;999.90;;;0.80;99.90;;;;;;6098103;23;20015;-74
2024/01/07 17:12:48;;;;;;;1999.90;999.90;;;0.80;99.90;;;;;;6097020;23;20017;-74
2024/01/07 17:15:14;;;;;;;1999.90;999.90;;;0.80;99.90;;;;;;6096765;23;20089;-74
2024/01/07 17:17:40;;;;;;;1999.90;999.90;;;0.80;99.90;;;;;;6098191;23;20006;-72
2024/01/07 17:20:08;;;;;;;1999.90;999.90;;;0.80;99.90;;;;;;6097279;23;20011;-78
2024/01/07 17:22:34;;;;;;;1999.90;999.90;;;0.80;99.90;;;;;;6094775;23;20015;-74
2024/01/07 17:25:00;;;;;;;1999.90;999.90;;;0.80;99.90;;;;;;6098443;23;20003;-73
2024/01/07 17:27:25;;;;;;;1999.90;999.90;;;0.80;99.90;;;;;;6095685;23;20023;-73
2024/01/07 17:29:51;;;;;;;1999.90;999.90;;;0.70;99.90;;;;;;6096360;23;20346;-72
2024/01/07 17:32:22;;;;;;;1999.90;999.90;;;0.70;99.90;;;;;;6096715;23;20696;-74
2024/01/07 17:34:50;;;;;;;1999.90;999.90;;;0.60;99.90;;;;;;6095941;23;20003;-73
2024/01/07 17:37:16;;;;;;;1999.90;999.90;;;0.60;99.90;;;;;;6097886;23;20042;-73
2024/01/07 17:39:43;;;;;;;1999.90;999.90;;;0.50;99.90;;;;;;6097921;23;20007;-73
2024/01/07 17:42:08;;;;;;;1999.90;999.90;;;0.50;99.90;;;;;;6097573;23;20007;-73
2024/01/07 17:44:34;;;;;;;1999.90;999.90;;;0.50;99.90;;;;;;6097900;23;20355;-73
2024/01/07 17:47:00;;;;;;;1999.90;999.90;;;0.40;99.90;;;;;;6098150;23;20007;-73
2024/01/07 17:49:26;;;;;;;1999.90;999.90;;;0.30;99.90;;;;;;6097992;23;20330;-72
2024/01/07 17:51:51;;;;;;;1999.90;999.90;;;0.30;99.90;;;;;;6097206;23;20019;-73
2024/01/07 17:54:17;;;;;;;1999.90;999.90;;;0.20;99.90;;;;;;6096628;23;20390;-73
2024/01/07 17:56:43;;;;;;;1999.90;999.90;;;0.20;99.90;;;;;;6098097;23;20562;-73
2024/01/07 17:59:10;;;;;;;1999.90;999.90;;;0.10;99.90;;;;;;6071560;23;20011;-73
2024/01/07 18:01:36;;;;;;;1999.90;999.90;;;0.10;99.90;;;;;;6071805;23;20018;-74
2024/01/07 18:04:03;;;;;;;1999.90;999.90;;;0.00;99.90;;;;;;6072516;23;20085;-73
2024/01/07 18:06:29;;;;;;;1999.90;999.90;;;0.00;99.90;;;;;;6097982;23;20427;-73
2024/01/07 18:08:55;;;;;;;1999.90;999.90;;;0.00;99.90;;;;;;6097817;23;20015;-74
2024/01/07 18:11:20;;;;;;;1999.90;999.90;;;-0.10;99.90;;;;;;6096765;23;20078;-74
2024/01/07 18:13:46;;;;;;;1999.90;999.90;;;-0.10;99.90;;;;;;6097879;23;20002;-73
2024/01/07 18:16:13;;;;;;;1999.90;999.90;;;-0.10;99.90;;;;;;6097825;23;20011;-73
2024/01/07 18:18:39;;;;;;;1999.90;999.90;;;-0.10;99.90;;;;;;6098141;23;20007;-73
2024/01/07 18:21:04;;;;;;;1999.90;999.90;;;-0.20;99.90;;;;;;6097124;23;20019;-73
2024/01/07 18:23:30;;;;;;;1999.90;999.90;;;-0.20;99.90;;;;;;6097634;23;20003;-74
2024/01/07 18:25:55;;;;;;;1999.90;999.90;;;-0.20;99.90;;;;;;6094948;23;20022;-73
2024/01/07 18:28:21;;;;;;;1999.90;999.90;;;-0.20;99.90;;;;;;6096944;23;20014;-73
2024/01/07 18:30:47;;;;;;;1999.90;999.90;;;-0.20;99.90;;;;;;6097460;23;20019;-73
2024/01/07 18:33:13;;;;;;;1999.90;999.90;;;-0.20;99.90;;;;;;6097558;23;20343;-73
2024/01/07 18:35:38;;;;;;;1999.90;999.90;;;-0.20;99.90;;;;;;6097623;23;20449;-73
2024/01/07 18:38:04;;;;;;;1999.90;999.90;;;-0.20;99.90;;;;;;6071923;23;20042;-72
2024/01/07 18:40:30;;;;;;;1999.90;999.90;;;-0.30;99.90;;;;;;6071978;23;20019;-73
2024/01/07 18:42:56;;;;;;;1999.90;999.90;;;-0.30;99.90;;;;;;6095163;23;20014;-72
2024/01/07 18:45:23;;;;;;;1999.90;999.90;;;-0.30;99.90;;;;;;6096969;23;20011;-71
2024/01/07 18:47:49;;;;;;;1999.90;999.90;;;-0.30;99.90;;;;;;6097648;23;20406;-71
2024/01/07 18:50:18;;;;;;;1999.90;999.90;;;-0.30;99.90;;;;;;6071699;23;20022;-72
2024/01/07 18:52:44;;;;;;;1999.90;999.90;;;-0.30;99.90;;;;;;6097170;23;20007;-73
2024/01/07 18:55:11;;;;;;;1999.90;999.90;;;-0.30;99.90;;;;;;6097796;23;20492;-75
2024/01/07 18:57:38;;;;;;;1999.90;999.90;;;-0.30;99.90;;;;;;6109974;23;20018;-74
2024/01/07 19:00:04;;;;;;;1999.90;999.90;;;-0.30;99.90;;;;;;6125104;23;20425;-77
2024/01/07 19:02:30;;;;;;;1999.90;999.90;;;-0.30;99.90;;;;;;6126478;23;19999;-76
2024/01/07 19:04:56;;;;;;;1999.90;999.90;;;-0.30;99.90;;;;;;6127024;23;20007;-76
2024/01/07 19:07:21;;;;;;;1999.90;999.90;;;-0.30;99.90;;;;;;6125313;22;20006;-76
2024/01/07 19:09:47;;;;;;;1999.90;999.90;;;-0.30;99.90;;;;;;6126988;23;20011;-79
2024/01/07 19:12:13;;;;;;;1999.90;999.90;;;-0.30;99.90;;;;;;6126226;23;20025;-74
2024/01/07 19:14:39;;;;;;;1999.90;999.90;;;-0.30;99.90;;;;;;6127057;23;20026;-73
2024/01/07 19:17:04;;;;;;;1999.90;999.90;;;-0.30;99.90;;;;;;6126976;23;20010;-74
2024/01/07 19:19:30;;;;;;;1999.90;999.90;;;-0.30;99.90;;;;;;6124337;22;20022;-73
2024/01/07 19:21:55;;;;;;;1999.90;999.90;;;-0.40;99.90;;;;;;6126074;23;20090;-74
2024/01/07 19:24:21;;;;;;;1999.90;999.90;;;-0.40;99.90;;;;;;6125153;22;20003;-75
2024/01/07 19:26:47;;;;;;;1999.90;999.90;;;-0.40;99.90;;;;;;6126785;23;20010;-74
2024/01/07 19:29:13;;;;;;;1999.90;999.90;;;-0.40;99.90;;;;;;6126811;23;20042;-75
2024/01/07 19:31:42;;;;;;;1999.90;999.90;;;-0.40;99.90;;;;;;6126528;23;20476;-74
2024/01/07 19:34:08;;;;;;;1999.90;999.90;;;-0.40;99.90;;;;;;6126912;23;20086;-72
2024/01/07 19:36:38;;;;;;;1999.90;999.90;;;-0.40;99.90;;;;;;6127024;23;20090;-72
2024/01/07 19:39:05;;;;;;;1999.90;999.90;;;-0.40;99.90;;;;;;6126966;23;20010;-75
2024/01/07 19:41:35;;;;;;;1999.90;999.90;;;-0.40;99.90;;;;;;6126277;23;20493;-74
2024/01/07 19:44:01;;;;;;;1999.90;999.90;;;-0.40;99.90;;;;;;6124809;23;20461;-75
2024/01/07 19:46:28;;;;;;;1999.90;999.90;;;-0.40;99.90;;;;;;6126890;23;20569;-75
2024/01/07 19:48:56;;;;;;;1999.90;999.90;;;-0.40;99.90;;;;;;6126231;23;20145;-75
2024/01/07 19:51:22;;;;;;;1999.90;999.90;;;-0.40;99.90;;;;;;6126611;23;20018;-78
2024/01/07 19:53:48;;;;;;;1999.90;999.90;;;-0.40;99.90;;;;;;6125260;23;20097;-74
2024/01/07 19:56:15;;;;;;;1999.90;999.90;;;-0.40;99.90;;;;;;6120025;22;20014;-74
2024/01/07 19:58:40;;;;;;;1999.90;999.90;;;-0.40;99.90;;;;;;6098841;23;20482;-71
2024/01/07 20:01:06;;;;;;;1999.90;999.90;;;-0.40;99.90;;;;;;6072862;23;20049;-75
2024/01/07 20:03:31;;;;;;;1999.90;999.90;;;-0.40;99.90;;;;;;6098863;23;20003;-71
2024/01/07 20:05:57;;;;;;;1999.90;999.90;;;-0.40;99.90;;;;;;6098948;23;20014;-72
2024/01/07 20:08:23;;;;;;;1999.90;999.90;;;-0.40;99.90;;;;;;6098882;23;20011;-71
2024/01/07 20:10:49;;;;;;;1999.90;999.90;;;-0.40;99.90;;;;;;6099240;23;20011;-75
2024/01/07 20:13:15;;;;;;;1999.90;999.90;;;-0.40;99.90;;;;;;6098695;23;20056;-75
2024/01/07 20:15:41;;;;;;;1999.90;999.90;;;-0.40;99.90;;;;;;6098472;23;20007;-73
2024/01/07 20:18:07;;;;;;;1999.90;999.90;;;-0.40;99.90;;;;;;6098552;23;20079;-72
2024/01/07 20:20:35;;;;;;;1999.90;999.90;;;-0.40;99.90;;;;;;6098934;23;20098;-71
2024/01/07 20:23:01;;;;;;;1999.90;999.90;;;-0.40;99.90;;;;;;6098179;23;20035;-72
2024/01/07 20:25:27;;;;;;;1999.90;999.90;;;-0.30;99.90;;;;;;6073004;23;20011;-72
2024/01/07 20:27:52;;;;;;;1999.90;999.90;;;-0.30;99.90;;;;;;6098757;23;20093;-71
2024/01/07 20:30:18;;;;;;;1999.90;999.90;;;-0.30;99.90;;;;;;6072907;23;20015;-72
2024/01/07 20:32:44;;;;;;;1999.90;999.90;;;-0.30;99.90;;;;;;6098251;23;20007;-72
2024/01/07 20:35:10;;;;;;;1999.90;999.90;;;-0.30;99.90;;;;;;6098755;23;20438;-71
2024/01/07 20:37:40;;;;;;;1999.90;999.90;;;-0.30;99.90;;;;;;6098735;23;20011;-71
2024/01/07 20:40:07;;;;;;;1999.90;999.90;;;-0.40;99.90;;;;;;6098758;23;20057;-71
2024/01/07 20:42:33;;;;;;;1999.90;999.90;;;-0.40;99.90;;;;;;6098335;23;20457;-71
2024/01/07 20:44:59;;;;;;;1999.90;999.90;;;-0.40;99.90;;;;;;6098687;23;20011;-71
2024/01/07 20:47:24;;;;;;;1999.90;999.90;;;-0.40;99.90;;;;;;6098543;23;20418;-71
2024/01/07 20:49:50;;;;;;;1999.90;999.90;;;-0.40;99.90;;;;;;6098525;23;20034;-72
2024/01/07 20:52:18;;;;;;;1999.90;999.90;;;-0.40;99.90;;;;;;6098013;23;20350;-71
2024/01/07 20:54:44;;;;;;;1999.90;999.90;;;-0.40;99.90;;;;;;6072667;23;20027;-73
2024/01/07 20:57:10;;;;;;;1999.90;999.90;;;-0.40;99.90;;;;;;6099868;23;20105;-71
2024/01/07 20:59:36;;;;;;;1999.90;999.90;;;-0.40;99.90;;;;;;6126376;22;20002;-72
2024/01/07 21:02:02;;;;;;;1999.90;999.90;;;-0.40;99.90;;;;;;6127239;23;20016;-71
2024/01/07 21:04:28;;;;;;;1999.90;999.90;;;-0.40;99.90;;;;;;6127693;23;20013;-71
2024/01/07 21:06:54;;;;;;;1999.90;999.90;;;-0.40;99.90;;;;;;6127858;23;20164;-71
2024/01/07 21:09:21;;;;;;;1999.90;999.90;;;-0.40;99.90;;;;;;6127539;23;20013;-74
2024/01/07 21:11:46;;;;;;;1999.90;999.90;;;-0.40;99.90;;;;;;6126921;23;20014;-71
2024/01/07 21:14:12;;;;;;;1999.90;999.90;;;-0.40;99.90;;;;;;6127574;23;20011;-72
2024/01/07 21:16:38;;;;;;;1999.90;999.90;;;-0.40;99.90;;;;;;6127495;23;20014;-71
2024/01/07 21:19:03;;;;;;;1999.90;999.90;;;-0.40;99.90;;;;;;6127439;23;20003;-71
2024/01/07 21:21:29;;;;;;;1999.90;999.90;;;-0.40;99.90;;;;;;6127042;23;20007;-71
2024/01/07 21:23:54;;;;;;;1999.90;999.90;;;-0.40;99.90;;;;;;6127636;23;20010;-71
2024/01/07 21:26:20;;;;;;;1999.90;999.90;;;-0.40;99.90;;;;;;6127542;23;20010;-71
2024/01/07 21:28:46;;;;;;;1999.90;999.90;;;-0.40;99.90;;;;;;6127455;23;20002;-71
2024/01/07 21:31:18;;;;;;;1999.90;999.90;;;-0.40;99.90;;;;;;6126542;23;20435;-72
2024/01/07 21:33:43;;;;;;;1999.90;999.90;;;-0.40;99.90;;;;;;6127389;23;20006;-72
2024/01/07 21:36:10;;;;;;;1999.90;999.90;;;-0.40;99.90;;;;;;6125544;22;20335;-72
2024/01/07 21:38:36;;;;;;;1999.90;999.90;;;-0.40;99.90;;;;;;6127548;23;20013;-71
2024/01/07 21:41:04;;;;;;;1999.90;999.90;;;-0.40;99.90;;;;;;6127174;23;20086;-75
2024/01/07 21:43:32;;;;;;;1999.90;999.90;;;-0.40;99.90;;;;;;6127546;23;20434;-73
2024/01/07 21:45:59;;;;;;;1999.90;999.90;;;-0.40;99.90;;;;;;6127342;23;20017;-72
2024/01/07 21:48:26;;;;;;;1999.90;999.90;;;-0.50;99.90;;;;;;6125680;22;20006;-73
2024/01/07 21:50:52;;;;;;;1999.90;999.90;;;-0.40;99.90;;;;;;6125567;23;20093;-73
2024/01/07 21:53:18;;;;;;;1999.90;999.90;;;-0.40;99.90;;;;;;6126732;23;20040;-73
2024/01/07 21:55:43;;;;;;;1999.90;999.90;;;-0.50;99.90;;;;;;6127337;23;20011;-74
2024/01/07 21:58:09;;;;;;;1999.90;999.90;;;-0.50;99.90;;;;;;6099076;23;20018;-73
2024/01/07 22:00:36;;;;;;;1999.90;999.90;;;-0.50;99.90;;;;;;6097840;23;20391;-73
2024/01/07 22:03:02;;;;;;;1999.90;999.90;;;-0.50;99.90;;;;;;6097255;23;20077;-75
2024/01/07 22:05:29;;;;;;;1999.90;999.90;;;-0.50;99.90;;;;;;6097898;23;20010;-73
2024/01/07 22:07:54;;;;;;;1999.90;999.90;;;-0.40;99.90;;;;;;6097947;23;20435;-74
2024/01/07 22:10:20;;;;;;;1999.90;999.90;;;-0.40;99.90;;;;;;6097836;23;20011;-74
2024/01/07 22:12:45;;;;;;;1999.90;999.90;;;-0.40;99.90;;;;;;6071814;23;20097;-73
2024/01/07 22:15:11;;;;;;;1999.90;999.90;;;-0.40;99.90;;;;;;6097839;23;20324;-74
2024/01/07 22:17:36;;;;;;;1999.90;999.90;;;-0.40;99.90;;;;;;6097969;23;20038;-73
2024/01/07 22:20:02;;;;;;;1999.90;999.90;;;-0.40;99.90;;;;;;6097695;23;20026;-74
2024/01/07 22:22:28;;;;;;;1999.90;999.90;;;-0.40;99.90;;;;;;6098297;23;20397;-73
2024/01/07 22:24:53;;;;;;;1999.90;999.90;;;-0.50;99.90;;;;;;6097678;23;20037;-73
2024/01/07 22:27:19;;;;;;;1999.90;999.90;;;-0.50;99.90;;;;;;6071983;23;20015;-73
2024/01/07 22:29:44;;;;;;;1999.90;999.90;;;-0.50;99.90;;;;;;6097436;23;20014;-73
2024/01/07 22:32:10;;;;;;;1999.90;999.90;;;-0.50;99.90;;;;;;6097235;23;20019;-73
2024/01/07 22:34:35;;;;;;;1999.90;999.90;;;-0.50;99.90;;;;;;6097694;23;20011;-73
2024/01/07 22:37:01;;;;;;;1999.90;999.90;;;-0.40;99.90;;;;;;6097645;23;20015;-73
2024/01/07 22:39:27;;;;;;;1999.90;999.90;;;-0.40;99.90;;;;;;6097616;23;20327;-73
2024/01/07 22:41:53;;;;;;;1999.90;999.90;;;-0.50;99.90;;;;;;6096858;23;20065;-74
2024/01/07 22:44:18;;;;;;;1999.90;999.90;;;-0.40;99.90;;;;;;6097683;23;20065;-73
2024/01/07 22:46:45;;;;;;;1999.90;999.90;;;-0.50;99.90;;;;;;6097710;23;20010;-73
2024/01/07 22:49:12;;;;;;;1999.90;999.90;;;-0.40;99.90;;;;;;6097688;23;20003;-73
2024/01/07 22:51:42;;;;;;;1999.90;999.90;;;-0.40;99.90;;;;;;6096937;23;20015;-74
2024/01/07 22:54:08;;;;;;;1999.90;999.90;;;-0.40;99.90;;;;;;6097613;23;20015;-74
2024/01/07 22:56:38;;;;;;;1999.90;999.90;;;-0.50;99.90;;;;;;6097181;23;20021;-74
2024/01/07 22:59:03;;;;;;;1999.90;999.90;;;-0.40;99.90;;;;;;6097633;23;20011;-73
2024/01/07 23:01:29;;;;;;;1999.90;999.90;;;-0.40;99.90;;;;;;6071436;23;20435;-73
2024/01/07 23:03:56;;;;;;;1999.90;999.90;;;-0.40;99.90;;;;;;6097657;23;20015;-73
2024/01/07 23:06:22;;;;;;;1999.90;999.90;;;-0.40;99.90;;;;;;6072471;23;20022;-73
2024/01/07 23:08:49;;;;;;;1999.90;999.90;;;-0.40;99.90;;;;;;6097717;23;20003;-73
2024/01/07 23:11:15;;;;;;;1999.90;999.90;;;-0.50;99.90;;;;;;6096862;23;20091;-73
2024/01/07 23:13:41;;;;;;;1999.90;999.90;;;-0.60;99.90;;;;;;6097519;23;20038;-73
2024/01/07 23:16:06;;;;;;;1999.90;999.90;;;-0.40;99.90;;;;;;6071604;23;20069;-73
2024/01/07 23:18:32;;;;;;;1999.90;999.90;;;-0.40;99.90;;;;;;6071607;23;20011;-74
2024/01/07 23:20:57;;;;;;;1999.90;999.90;;;-0.40;99.90;;;;;;6097143;23;20042;-73
2024/01/07 23:23:23;;;;;;;1999.90;999.90;;;-0.40;99.90;;;;;;6097337;23;20046;-73
2024/01/07 23:25:48;;;;;;;1999.90;999.90;;;-0.40;99.90;;;;;;6097208;23;20109;-72
2024/01/07 23:28:14;;;;;;;1999.90;999.90;;;-0.40;99.90;;;;;;6096294;23;20527;-72
2024/01/07 23:30:39;;;;;;;1999.90;999.90;;;-0.30;99.90;;;;;;6096902;23;20047;-71
2024/01/07 23:33:05;;;;;;;1999.90;999.90;;;-0.30;99.90;;;;;;6097326;23;20017;-72
2024/01/07 23:35:31;;;;;;;1999.90;999.90;;;-0.30;99.90;;;;;;6073843;23;20018;-70
2024/01/07 23:37:56;;;;;;;1999.90;999.90;;;-0.30;99.90;;;;;;6099463;23;20070;-70
2024/01/07 23:40:22;;;;;;;1999.90;999.90;;;-0.30;99.90;;;;;;6099705;23;20013;-78
2024/01/07 23:42:48;;;;;;;1999.90;999.90;;;-0.30;99.90;;;;;;6099136;23;20007;-74
2024/01/07 23:45:13;;;;;;;1999.90;999.90;;;-0.30;99.90;;;;;;6073782;23;20439;-76
2024/01/07 23:47:39;;;;;;;1999.90;999.90;;;-0.30;99.90;;;;;;6099708;23;20015;-80
2024/01/07 23:50:06;;;;;;;1999.90;999.90;;;-0.30;99.90;;;;;;6073654;23;20022;-75
2024/01/07 23:52:31;;;;;;;1999.90;999.90;;;-0.30;99.90;;;;;;6098602;23;20154;-75
2024/01/07 23:54:58;;;;;;;1999.90;999.90;;;-0.30;99.90;;;;;;6099143;23;20445;-73
2024/01/07 23:57:24;;;;;;;1999.90;999.90;;;-0.30;99.90;;;;;;6098425;23;20399;-73
2024/01/07 23:59:50;;;;;;;1999.90;999.90;;;-0.30;99.90;;;;;;6098446;23;20006;-72
